Time;durP1;ratioP1;P1;durP2;ratioP2;P2;SDS_P1;SDS_P2;PMS_P1;PMS_P2;Temp;Humidity;BMP_temperature;BMP_pressure;BME280_temperature;BME280_humidity;BME280_pressure;Samples;Min_cycle;Max_cycle;Signal;HPM_P1;HPM_P2
2021/09/10 00:01:55;;;;;;;;;18.33;18.33;23.30;37.70;;;;;;5094391;28;8841;-65
2021/09/10 00:04:21;;;;;;;;;18.00;18.00;23.30;37.70;;;;;;5094221;28;9440;-65
2021/09/10 00:06:46;;;;;;;;;19.00;19.00;23.30;37.80;;;;;;5094288;28;8876;-65
2021/09/10 00:09:12;;;;;;;;;21.00;21.00;23.30;37.80;;;;;;5094021;28;8807;-64
2021/09/10 00:11:38;;;;;;;;;23.67;23.67;23.30;37.80;;;;;;5094088;28;8770;-65
2021/09/10 00:14:04;;;;;;;;;21.33;21.33;23.20;37.70;;;;;;5076481;28;8840;-65
2021/09/10 00:16:30;;;;;;;;;16.33;16.33;23.10;37.70;;;;;;5094305;28;8752;-65
2021/09/10 00:18:55;;;;;;;;;19.33;19.33;23.20;38.10;;;;;;5094001;28;8771;-65
2021/09/10 00:21:21;;;;;;;;;17.33;17.33;23.20;37.90;;;;;;5094254;28;8763;-65
2021/09/10 00:23:47;;;;;;;;;20.33;20.33;23.20;38.00;;;;;;5093900;28;8774;-65
2021/09/10 00:26:13;;;;;;;;;21.33;21.33;23.20;38.00;;;;;;5094309;28;8796;-65
2021/09/10 00:28:39;;;;;;;;;19.67;19.67;23.10;38.10;;;;;;5095936;28;8791;-65
2021/09/10 00:31:04;;;;;;;;;19.00;19.00;23.00;39.00;;;;;;5097878;28;8764;-65
2021/09/10 00:33:30;;;;;;;;;18.67;18.67;23.10;38.00;;;;;;5097546;28;8789;-66
2021/09/10 00:35:56;;;;;;;;;22.33;22.33;23.00;38.00;;;;;;5097627;28;8764;-65
2021/09/10 00:38:22;;;;;;;;;18.33;18.33;23.00;38.30;;;;;;5097776;28;8780;-66
2021/09/10 00:40:48;;;;;;;;;19.67;19.67;23.00;38.50;;;;;;5097445;28;8833;-65
2021/09/10 00:43:14;;;;;;;;;16.33;16.33;23.00;38.50;;;;;;5097501;28;8729;-65
2021/09/10 00:45:45;;;;;;;;;20.00;20.00;23.00;38.30;;;;;;5097358;28;8763;-65
2021/09/10 00:48:11;;;;;;;;;19.33;19.33;23.00;38.40;;;;;;5097196;28;8824;-65
2021/09/10 00:50:38;;;;;;;;;20.00;20.00;23.00;38.50;;;;;;5097232;28;8879;-66
2021/09/10 00:53:04;;;;;;;;;21.67;21.67;22.90;38.90;;;;;;5097552;28;8760;-65
2021/09/10 00:55:31;;;;;;;;;20.00;20.00;22.80;39.90;;;;;;5097084;28;8824;-66
2021/09/10 00:57:56;;;;;;;;;16.00;16.00;22.80;40.00;;;;;;5097462;28;8784;-65
2021/09/10 01:00:22;;;;;;;;;15.00;15.00;22.80;40.40;;;;;;5097269;28;8768;-66
2021/09/10 01:02:49;;;;;;;;;12.00;12.00;22.80;40.50;;;;;;5097246;28;8767;-65
2021/09/10 01:05:15;;;;;;;;;14.33;14.33;22.70;40.60;;;;;;5097049;28;8778;-65
2021/09/10 01:07:42;;;;;;;;;16.33;16.33;22.60;40.40;;;;;;5096853;28;8846;-65
2021/09/10 01:10:08;;;;;;;;;16.00;16.00;22.60;40.10;;;;;;5097121;28;8849;-65
2021/09/10 01:12:35;;;;;;;;;16.00;16.00;22.40;40.10;;;;;;5097115;28;8779;-65
2021/09/10 01:15:01;;;;;;;;;17.67;17.67;22.40;40.20;;;;;;5096808;28;8768;-65
2021/09/10 01:17:28;;;;;;;;;14.33;14.33;22.40;39.90;;;;;;5097023;28;8760;-66
2021/09/10 01:19:53;;;;;;;;;14.67;14.67;22.40;40.00;;;;;;5096991;28;8790;-65
2021/09/10 01:22:19;;;;;;;;;14.00;14.00;22.40;40.10;;;;;;5096917;28;8756;-65
2021/09/10 01:25:12;;;;;;;;;13.33;13.33;22.40;40.10;;;;;;5096572;28;8799;-65
2021/09/10 01:27:43;;;;;;;;;10.00;10.00;22.40;40.00;;;;;;5096450;28;8763;-65
2021/09/10 01:30:11;;;;;;;;;13.33;13.33;22.30;40.40;;;;;;5096630;28;8752;-66
2021/09/10 01:32:37;;;;;;;;;16.00;16.00;22.30;40.50;;;;;;5096476;28;8756;-65
2021/09/10 01:35:04;;;;;;;;;13.67;13.67;22.30;40.50;;;;;;5096715;28;8817;-65
2021/09/10 01:37:30;;;;;;;;;15.33;15.33;22.30;40.50;;;;;;5096420;28;8752;-67
2021/09/10 01:39:55;;;;;;;;;15.67;15.67;22.30;40.70;;;;;;5095623;28;8805;-65
2021/09/10 01:42:21;;;;;;;;;15.67;15.67;22.30;40.60;;;;;;5096537;28;8787;-65
2021/09/10 01:44:47;;;;;;;;;14.67;14.67;22.20;40.90;;;;;;5078263;28;8784;-65
2021/09/10 01:47:13;;;;;;;;;17.67;17.67;22.20;40.80;;;;;;5096352;28;8862;-65
2021/09/10 01:49:38;;;;;;;;;20.00;20.00;22.20;41.10;;;;;;5096273;28;8783;-65
2021/09/10 01:52:04;;;;;;;;;19.33;19.33;22.20;41.10;;;;;;5096022;28;8771;-65
2021/09/10 01:54:30;;;;;;;;;17.33;17.33;22.10;41.20;;;;;;5096175;28;8787;-65
2021/09/10 01:56:57;;;;;;;;;18.67;18.67;22.10;41.20;;;;;;5095870;28;8842;-65
2021/09/10 01:59:23;;;;;;;;;21.33;21.33;22.10;41.30;;;;;;5096220;28;8879;-66
2021/09/10 02:01:49;;;;;;;;;21.00;20.33;22.10;41.40;;;;;;5095851;28;9673;-65
2021/09/10 02:04:14;;;;;;;;;25.00;25.00;22.00;41.40;;;;;;5095859;28;8779;-65
2021/09/10 02:06:40;;;;;;;;;23.67;23.67;22.00;42.40;;;;;;5096062;28;8770;-65
2021/09/10 02:09:06;;;;;;;;;26.67;26.67;22.10;41.40;;;;;;5095722;28;8816;-65
2021/09/10 02:11:32;;;;;;;;;32.00;32.00;22.00;41.30;;;;;;5095960;28;8772;-65
2021/09/10 02:13:58;;;;;;;;;34.00;33.00;22.00;41.50;;;;;;5095950;28;8764;-65
2021/09/10 02:16:23;;;;;;;;;38.00;35.33;22.00;41.50;;;;;;5095611;28;9386;-65
2021/09/10 02:18:49;;;;;;;;;32.67;32.33;22.00;41.60;;;;;;5095486;28;8787;-65
2021/09/10 02:21:15;;;;;;;;;32.67;32.67;21.90;41.60;;;;;;5095511;28;8756;-65
2021/09/10 02:23:41;;;;;;;;;30.67;30.67;21.90;41.60;;;;;;5095790;28;9465;-66
2021/09/10 02:26:07;;;;;;;;;28.00;28.00;21.90;41.70;;;;;;5095325;28;8819;-65
2021/09/10 02:28:33;;;;;;;;;27.33;27.33;21.80;41.80;;;;;;5095575;28;8792;-65
2021/09/10 02:30:58;;;;;;;;;28.67;28.67;21.80;41.80;;;;;;5095370;28;9377;-65
2021/09/10 02:33:24;;;;;;;;;33.67;32.00;21.70;42.00;;;;;;5095289;28;8774;-64
2021/09/10 02:35:50;;;;;;;;;27.33;27.33;21.70;42.10;;;;;;5095534;28;8748;-65
2021/09/10 02:38:16;;;;;;;;;28.00;28.00;21.80;42.00;;;;;;5095170;28;8791;-65
2021/09/10 02:40:42;;;;;;;;;23.67;23.67;21.90;41.90;;;;;;5095197;28;8787;-65
2021/09/10 02:43:08;;;;;;;;;21.67;21.67;22.00;41.70;;;;;;5095369;28;8748;-65
2021/09/10 02:45:34;;;;;;;;;22.33;22.33;21.90;41.70;;;;;;5095324;28;8786;-66
2021/09/10 02:48:00;;;;;;;;;19.33;19.33;21.80;41.80;;;;;;5094940;28;8826;-65
2021/09/10 02:50:26;;;;;;;;;23.67;22.67;21.70;41.60;;;;;;5094990;28;8764;-65
2021/09/10 02:52:52;;;;;;;;;22.00;22.00;21.70;41.50;;;;;;5094325;28;9421;-65
2021/09/10 02:55:18;;;;;;;;;18.00;18.00;21.70;41.30;;;;;;5094820;28;8820;-65
2021/09/10 02:57:44;;;;;;;;;17.67;17.67;21.60;41.50;;;;;;5094995;28;8748;-65
2021/09/10 03:00:10;;;;;;;;;21.33;21.33;21.60;41.20;;;;;;5095132;28;8756;-65
2021/09/10 03:02:37;;;;;;;;;23.00;23.00;21.60;41.20;;;;;;5095102;28;9398;-66
2021/09/10 03:05:06;;;;;;;;;24.33;24.33;21.50;41.30;;;;;;5094823;28;8781;-65
2021/09/10 03:07:32;;;;;;;;;24.67;24.67;21.40;41.00;;;;;;5094961;28;8768;-65
2021/09/10 03:09:58;;;;;;;;;20.67;20.67;21.40;41.10;;;;;;5094996;28;9650;-65
2021/09/10 03:12:24;;;;;;;;;20.67;20.67;21.40;41.10;;;;;;5094648;28;8845;-65
2021/09/10 03:14:50;;;;;;;;;26.33;26.33;21.30;41.40;;;;;;5094672;28;8760;-65
2021/09/10 03:17:16;;;;;;;;;27.00;27.00;21.10;41.50;;;;;;5094709;28;8838;-65
2021/09/10 03:19:42;;;;;;;;;25.67;25.67;21.10;41.70;;;;;;5076763;28;8783;-65
2021/09/10 03:22:08;;;;;;;;;22.00;22.00;21.20;41.90;;;;;;5094569;28;8775;-65
2021/09/10 03:24:34;;;;;;;;;28.67;28.67;21.00;42.10;;;;;;5094716;28;8768;-65
2021/09/10 03:27:00;;;;;;;;;25.33;25.33;21.10;42.00;;;;;;5094742;28;8768;-65
2021/09/10 03:29:26;;;;;;;;;28.33;28.33;21.30;41.60;;;;;;5094544;28;8871;-65
2021/09/10 03:31:51;;;;;;;;;26.67;26.67;21.30;41.40;;;;;;5094492;28;8752;-65
2021/09/10 03:34:17;;;;;;;;;27.67;27.67;21.30;41.40;;;;;;5094448;28;8770;-65
2021/09/10 03:36:43;;;;;;;;;25.33;25.33;21.30;41.30;;;;;;5094354;28;8776;-65
2021/09/10 03:39:09;;;;;;;;;26.00;26.00;21.30;41.20;;;;;;5094687;28;8879;-65
2021/09/10 03:41:35;;;;;;;;;24.33;24.33;21.30;41.40;;;;;;5094363;28;8846;-65
2021/09/10 03:44:00;;;;;;;;;26.67;26.67;21.30;41.40;;;;;;5094585;28;8768;-66
2021/09/10 03:46:26;;;;;;;;;24.33;24.33;21.30;41.30;;;;;;5094275;28;8779;-66
2021/09/10 03:48:52;;;;;;;;;27.00;27.00;21.20;41.20;;;;;;5094500;28;8796;-65
2021/09/10 03:51:18;;;;;;;;;27.33;27.33;21.30;41.20;;;;;;5094258;28;8791;-65
2021/09/10 03:53:44;;;;;;;;;27.00;27.00;21.20;40.80;;;;;;5094542;28;8776;-65
2021/09/10 03:56:09;;;;;;;;;29.33;29.33;21.10;40.90;;;;;;5094072;28;8936;-65
2021/09/10 03:58:36;;;;;;;;;31.67;31.67;21.20;41.00;;;;;;5094250;28;8767;-65
2021/09/10 04:01:01;;;;;;;;;32.67;31.67;21.10;41.00;;;;;;5094535;28;8786;-65
2021/09/10 04:03:28;;;;;;;;;34.00;33.00;21.10;41.00;;;;;;5096342;28;9445;-65
2021/09/10 04:05:53;;;;;;;;;31.33;31.00;21.10;41.20;;;;;;5098326;28;8880;-65
2021/09/10 04:08:19;;;;;;;;;32.00;31.00;21.10;41.00;;;;;;5098068;28;8912;-65
2021/09/10 04:10:45;;;;;;;;;30.33;30.33;21.10;41.00;;;;;;5098257;28;8763;-65
2021/09/10 04:13:11;;;;;;;;;26.67;26.67;21.00;41.10;;;;;;5097725;28;8756;-65
2021/09/10 04:15:37;;;;;;;;;23.00;23.00;21.00;41.30;;;;;;5098245;28;8779;-65
2021/09/10 04:18:03;;;;;;;;;28.67;28.67;21.00;41.50;;;;;;5097859;28;8787;-65
2021/09/10 04:20:29;;;;;;;;;28.33;28.33;21.00;41.50;;;;;;5098163;28;8756;-65
2021/09/10 04:22:55;;;;;;;;;26.00;26.00;20.90;41.70;;;;;;5097837;28;8788;-65
2021/09/10 04:25:21;;;;;;;;;26.00;26.00;20.90;41.80;;;;;;5097770;28;8792;-65
2021/09/10 04:27:47;;;;;;;;;28.33;28.33;20.90;41.90;;;;;;5097619;28;8776;-65
2021/09/10 04:30:13;;;;;;;;;23.00;23.00;20.70;41.90;;;;;;5097865;28;8852;-66
2021/09/10 04:32:39;;;;;;;;;25.33;25.33;20.80;41.80;;;;;;5097582;28;8855;-65
2021/09/10 04:35:07;;;;;;;;;28.00;28.00;20.80;41.90;;;;;;5097413;28;8768;-65
2021/09/10 04:37:34;;;;;;;;;27.00;26.67;20.70;42.00;;;;;;5079472;28;8782;-65
2021/09/10 04:40:01;;;;;;;;;28.00;28.00;20.60;42.20;;;;;;5086328;28;8774;-66
2021/09/10 04:42:27;;;;;;;;;26.00;26.00;20.60;43.60;;;;;;5088965;28;8795;-64
2021/09/10 04:44:53;;;;;;;;;26.67;26.67;20.70;42.30;;;;;;5059473;28;8908;-65
2021/09/10 04:47:19;;;;;;;;;30.00;30.00;20.80;42.30;;;;;;5077055;28;8754;-65
2021/09/10 04:49:45;;;;;;;;;29.00;29.00;20.70;43.30;;;;;;5076944;28;8821;-69
2021/09/10 04:52:11;;;;;;;;;28.67;28.67;20.80;42.30;;;;;;5092629;28;8764;-68
2021/09/10 04:54:37;;;;;;;;;26.67;26.67;20.90;43.30;;;;;;5095961;28;9645;-68
2021/09/10 04:57:03;;;;;;;;;26.00;26.00;20.90;42.20;;;;;;5089102;28;8788;-68
2021/09/10 04:59:29;;;;;;;;;27.67;27.67;20.80;42.20;;;;;;5094309;28;9512;-68
2021/09/10 05:01:55;;;;;;;;;28.33;28.33;20.90;42.30;;;;;;5093611;28;8772;-68
2021/09/10 05:04:24;;;;;;;;;27.33;27.33;20.80;42.40;;;;;;5093919;28;8791;-69
2021/09/10 05:06:50;;;;;;;;;33.00;33.00;20.80;42.60;;;;;;5096914;28;8786;-68
2021/09/10 05:09:16;;;;;;;;;30.00;30.00;20.90;42.60;;;;;;5096813;28;8804;-69
2021/09/10 05:11:42;;;;;;;;;33.33;31.33;20.90;42.30;;;;;;5096785;28;8791;-69
2021/09/10 05:14:09;;;;;;;;;29.33;29.33;20.90;42.50;;;;;;5096095;28;8799;-68
2021/09/10 05:16:36;;;;;;;;;34.00;32.00;21.00;42.60;;;;;;5096548;28;9343;-68
2021/09/10 05:19:02;;;;;;;;;30.67;30.67;20.90;42.50;;;;;;5096706;28;8756;-65
2021/09/10 05:21:27;;;;;;;;;34.33;33.33;20.90;42.80;;;;;;5096790;28;8744;-65
2021/09/10 05:23:53;;;;;;;;;33.33;32.00;21.00;42.70;;;;;;5090249;28;8785;-64
2021/09/10 05:26:19;;;;;;;;;36.33;33.33;21.00;42.70;;;;;;5088530;28;8790;-64
2021/09/10 05:28:45;;;;;;;;;32.00;32.00;20.90;42.80;;;;;;5087556;28;8883;-65
2021/09/10 05:31:11;;;;;;;;;33.67;32.00;20.90;42.40;;;;;;5076177;28;8758;-64
2021/09/10 05:33:37;;;;;;;;;33.33;32.33;20.80;42.60;;;;;;5074618;28;10153;-65
2021/09/10 05:36:04;;;;;;;;;30.67;30.67;20.90;43.00;;;;;;5086607;28;8806;-64
2021/09/10 05:38:30;;;;;;;;;33.00;32.33;21.00;42.90;;;;;;5086596;28;8836;-64
2021/09/10 05:40:55;;;;;;;;;32.67;31.67;21.00;42.90;;;;;;5080128;28;9466;-64
2021/09/10 05:43:21;;;;;;;;;34.67;33.33;21.10;43.00;;;;;;5087180;28;8789;-66
2021/09/10 05:45:47;;;;;;;;;39.33;36.00;21.10;43.10;;;;;;5075816;28;8792;-67
2021/09/10 05:48:13;;;;;;;;;39.00;36.33;21.10;42.50;;;;;;5075935;28;8915;-67
2021/09/10 05:50:39;;;;;;;;;41.00;36.00;21.20;42.10;;;;;;5076001;28;8806;-64
2021/09/10 05:53:06;;;;;;;;;40.25;37.00;21.30;41.90;;;;;;5075286;28;9386;-63
2021/09/10 05:55:32;;;;;;;;;39.50;36.50;21.40;41.80;;;;;;5077322;28;8802;-64
2021/09/10 05:57:58;;;;;;;;;41.50;36.50;21.40;41.60;;;;;;5086650;28;8888;-64
2021/09/10 06:00:24;;;;;;;;;48.50;41.25;21.40;41.60;;;;;;5088725;28;8778;-63
2021/09/10 06:02:49;;;;;;;;;47.50;41.25;21.30;41.90;;;;;;5078510;28;8785;-64
2021/09/10 06:05:15;;;;;;;;;48.25;41.75;21.40;41.70;;;;;;5084774;28;8869;-67
2021/09/10 06:07:41;;;;;;;;;38.25;34.75;21.40;41.70;;;;;;5078481;28;8784;-64
2021/09/10 06:10:07;;;;;;;;;36.75;33.75;21.40;41.90;;;;;;5086936;28;8773;-63
2021/09/10 06:12:33;;;;;;;;;44.25;38.25;21.40;42.10;;;;;;5083591;28;8837;-66
2021/09/10 06:14:58;;;;;;;;;45.25;38.75;21.50;42.30;;;;;;5087915;28;8769;-65
2021/09/10 06:17:24;;;;;;;;;50.75;43.50;21.60;42.30;;;;;;5074864;28;8784;-66
2021/09/10 06:19:50;;;;;;;;;44.50;39.50;21.70;42.20;;;;;;5083176;28;8777;-66
2021/09/10 06:22:16;;;;;;;;;47.50;41.25;21.80;42.40;;;;;;5079976;28;8776;-66
2021/09/10 06:24:41;;;;;;;;;50.25;43.25;21.80;42.50;;;;;;5084013;28;8796;-66
2021/09/10 06:27:07;;;;;;;;;45.75;40.25;21.90;42.30;;;;;;5083109;28;8791;-66
2021/09/10 06:29:33;;;;;;;;;49.25;42.50;21.90;42.00;;;;;;5082795;28;8816;-66
2021/09/10 06:31:59;;;;;;;;;41.75;37.50;21.90;41.90;;;;;;5084845;28;8766;-67
2021/09/10 06:34:26;;;;;;;;;44.25;38.00;22.00;41.90;;;;;;5083837;28;8781;-67
2021/09/10 06:36:52;;;;;;;;;41.25;36.25;22.10;42.20;;;;;;5077134;28;8810;-66
2021/09/10 06:39:18;;;;;;;;;44.33;40.00;22.20;42.10;;;;;;5085843;28;8790;-64
2021/09/10 06:41:44;;;;;;;;;38.00;35.67;22.20;42.20;;;;;;5076842;28;8800;-66
2021/09/10 06:44:11;;;;;;;;;38.67;36.00;22.20;42.20;;;;;;5085851;28;9437;-66
2021/09/10 06:46:36;;;;;;;;;40.00;35.33;22.20;42.10;;;;;;5081517;28;8790;-66
2021/09/10 06:49:02;;;;;;;;;37.00;36.00;22.30;41.90;;;;;;5083397;28;8842;-67
2021/09/10 06:51:28;;;;;;;;;37.00;35.00;22.40;42.00;;;;;;5086848;28;8870;-65
2021/09/10 06:53:54;;;;;;;;;39.33;36.33;22.40;41.80;;;;;;5087554;28;8796;-65
2021/09/10 06:56:20;;;;;;;;;37.00;34.67;22.40;41.70;;;;;;5103059;28;8811;-67
2021/09/10 06:58:46;;;;;;;;;32.00;31.67;22.50;41.50;;;;;;5095472;28;8797;-66
2021/09/10 07:01:12;;;;;;;;;38.00;35.33;22.50;41.20;;;;;;5083351;28;8789;-67
2021/09/10 07:03:38;;;;;;;;;33.00;32.00;22.60;41.30;;;;;;5086760;28;8840;-66
2021/09/10 07:06:04;;;;;;;;;31.67;31.67;22.60;41.20;;;;;;5075618;28;8810;-65
2021/09/10 07:08:31;;;;;;;;;36.33;34.33;22.70;41.10;;;;;;5083027;28;8826;-65
2021/09/10 07:10:57;;;;;;;;;29.33;29.33;22.80;41.00;;;;;;5085453;28;8961;-65
2021/09/10 07:13:23;;;;;;;;;37.33;34.67;22.80;40.50;;;;;;5074347;28;8779;-65
2021/09/10 07:15:49;;;;;;;;;33.67;32.33;22.80;40.60;;;;;;5074648;28;8856;-66
2021/09/10 07:18:15;;;;;;;;;30.00;30.00;22.90;40.50;;;;;;5074667;28;8752;-66
2021/09/10 07:20:41;;;;;;;;;30.00;30.00;22.90;40.10;;;;;;5074218;28;9367;-65
2021/09/10 07:23:07;;;;;;;;;33.67;32.33;22.90;39.90;;;;;;5074313;28;8868;-65
2021/09/10 07:25:33;;;;;;;;;29.33;29.33;23.00;40.10;;;;;;5081584;28;8803;-66
2021/09/10 07:27:59;;;;;;;;;27.67;27.67;23.10;39.90;;;;;;5110765;28;8886;-65
2021/09/10 07:30:24;;;;;;;;;29.00;29.00;23.30;39.50;;;;;;5085064;28;8785;-64
2021/09/10 07:32:50;;;;;;;;;28.67;28.67;23.30;39.10;;;;;;5075451;28;8752;-65
2021/09/10 07:35:16;;;;;;;;;27.67;27.67;23.40;39.30;;;;;;5093301;28;9477;-64
2021/09/10 07:37:44;;;;;;;;;30.33;30.33;23.50;39.30;;;;;;5094904;28;9407;-64
2021/09/10 07:40:11;;;;;;;;;28.00;28.00;23.50;39.20;;;;;;5084466;28;8764;-65
2021/09/10 07:42:37;;;;;;;;;28.33;28.33;23.50;38.90;;;;;;5081171;28;8894;-65
2021/09/10 07:45:03;;;;;;;;;25.00;25.00;23.60;38.80;;;;;;5089477;28;8781;-64
2021/09/10 07:47:29;;;;;;;;;28.67;28.67;23.70;38.70;;;;;;5077701;28;8760;-65
2021/09/10 07:49:55;;;;;;;;;30.67;30.67;23.80;38.80;;;;;;5078325;28;8796;-64
2021/09/10 07:52:20;;;;;;;;;25.00;25.00;23.80;38.50;;;;;;5084943;28;9427;-65
2021/09/10 07:54:46;;;;;;;;;29.33;29.33;23.90;38.60;;;;;;5086910;28;8805;-65
2021/09/10 07:57:12;;;;;;;;;28.33;28.33;24.00;38.40;;;;;;5093737;28;8784;-64
2021/09/10 07:59:38;;;;;;;;;30.00;30.00;24.00;37.90;;;;;;5095472;28;8781;-66
2021/09/10 08:02:04;;;;;;;;;27.67;27.67;24.10;37.70;;;;;;5090897;28;8766;-66
2021/09/10 08:04:30;;;;;;;;;25.67;25.67;24.10;37.50;;;;;;5089735;28;8862;-65
2021/09/10 08:06:56;;;;;;;;;27.00;27.00;24.10;37.50;;;;;;5077803;28;8760;-65
2021/09/10 08:09:22;;;;;;;;;31.00;31.00;24.10;37.70;;;;;;5077758;28;8796;-66
2021/09/10 08:11:47;;;;;;;;;32.00;31.33;24.20;37.50;;;;;;5077672;28;8784;-65
2021/09/10 08:14:13;;;;;;;;;34.67;32.33;24.20;37.40;;;;;;5077997;28;9434;-65
2021/09/10 08:16:39;;;;;;;;;34.00;33.00;24.30;37.30;;;;;;5084083;28;8770;-64
2021/09/10 08:19:05;;;;;;;;;35.67;34.00;24.30;37.30;;;;;;5097970;28;8777;-65
2021/09/10 08:21:31;;;;;;;;;32.00;31.67;24.40;37.10;;;;;;5095869;28;9418;-65
2021/09/10 08:23:57;;;;;;;;;34.67;33.00;24.40;37.10;;;;;;5086437;28;8796;-65
2021/09/10 08:26:23;;;;;;;;;37.67;33.67;24.50;37.20;;;;;;5098773;28;8807;-65
2021/09/10 08:28:49;;;;;;;;;33.67;32.33;24.50;37.20;;;;;;5118014;28;8795;-65
2021/09/10 08:31:15;;;;;;;;;31.00;31.00;24.60;37.40;;;;;;5104096;28;8785;-65
2021/09/10 08:33:41;;;;;;;;;29.00;29.00;24.70;37.20;;;;;;5086394;28;8814;-65
2021/09/10 08:36:07;;;;;;;;;30.33;30.33;24.70;37.00;;;;;;5085707;28;8809;-64
2021/09/10 08:38:33;;;;;;;;;31.00;31.00;24.80;36.70;;;;;;5097403;28;8789;-66
2021/09/10 08:41:02;;;;;;;;;25.33;25.33;24.90;36.40;;;;;;5097251;28;8808;-65
2021/09/10 08:43:28;;;;;;;;;30.33;30.33;25.00;36.10;;;;;;5097334;28;8757;-65
2021/09/10 08:45:58;;;;;;;;;27.33;27.33;24.90;36.00;;;;;;5096796;28;8967;-65
2021/09/10 08:48:27;;;;;;;;;29.33;29.33;24.90;36.00;;;;;;5097200;28;8893;-66
2021/09/10 08:50:54;;;;;;;;;26.67;26.67;25.00;35.60;;;;;;5094371;28;8796;-65
2021/09/10 08:53:21;;;;;;;;;27.00;27.00;25.10;35.90;;;;;;5078829;28;8806;-65
2021/09/10 08:55:47;;;;;;;;;25.00;25.00;25.10;35.60;;;;;;5096578;28;8923;-65
2021/09/10 08:58:12;;;;;;;;;21.00;21.00;25.20;35.20;;;;;;5110870;28;8782;-66
2021/09/10 09:00:41;;;;;;;;;23.67;23.67;25.20;35.30;;;;;;5097136;28;9427;-67
2021/09/10 09:03:09;;;;;;;;;23.67;23.67;25.30;35.40;;;;;;5087659;28;8921;-67
2021/09/10 09:05:35;;;;;;;;;24.00;24.00;25.40;35.20;;;;;;5076752;28;8784;-66
2021/09/10 09:08:05;;;;;;;;;23.00;23.00;25.50;34.40;;;;;;5076672;28;8866;-66
2021/09/10 09:11:06;;;;;;;;;21.33;21.33;25.60;34.30;;;;;;5076797;28;8788;-66
2021/09/10 09:13:43;;;;;;;;;24.00;23.00;25.50;34.60;;;;;;5077541;28;8796;-66
2021/09/10 09:16:19;;;;;;;;;23.33;23.33;25.60;34.50;;;;;;5076677;28;9445;-65
2021/09/10 09:18:50;;;;;;;;;24.67;24.67;25.70;33.90;;;;;;5086475;28;8813;-66
2021/09/10 09:21:37;;;;;;;;;23.33;23.33;25.70;33.80;;;;;;5094795;28;9407;-66
2021/09/10 09:24:20;;;;;;;;;23.33;23.33;25.90;33.70;;;;;;5094493;28;8781;-66
2021/09/10 09:26:49;;;;;;;;;22.67;22.67;26.00;33.50;;;;;;5110191;28;8832;-66
2021/09/10 09:29:17;;;;;;;;;21.67;21.67;25.90;34.10;;;;;;5117109;28;9549;-66
2021/09/10 09:32:01;;;;;;;;;21.67;21.67;26.10;33.40;;;;;;5116796;28;8782;-66
2021/09/10 09:34:50;;;;;;;;;24.67;24.67;26.10;33.70;;;;;;5078004;28;8893;-66
2021/09/10 09:37:17;;;;;;;;;24.33;24.33;26.30;33.20;;;;;;5076197;28;8757;-66
2021/09/10 09:39:52;;;;;;;;;22.33;22.33;26.50;33.60;;;;;;5076097;28;8745;-66
2021/09/10 09:42:37;;;;;;;;;23.00;23.00;26.50;32.80;;;;;;5075985;28;8757;-66
2021/09/10 09:45:12;;;;;;;;;22.00;22.00;26.70;32.80;;;;;;5075885;28;8772;-66
2021/09/10 09:47:39;;;;;;;;;22.33;22.33;26.90;32.60;;;;;;5076524;28;8797;-65
2021/09/10 09:50:11;;;;;;;;;19.33;19.33;26.90;32.10;;;;;;5086026;28;11533;-66
2021/09/10 09:52:37;;;;;;;;;21.33;21.33;27.00;32.00;;;;;;5077930;28;11469;-65
2021/09/10 09:55:05;;;;;;;;;19.67;19.67;27.00;31.60;;;;;;5092219;28;8817;-66
2021/09/10 09:57:31;;;;;;;;;19.67;19.67;27.20;31.70;;;;;;5093838;28;8804;-66
2021/09/10 09:59:57;;;;;;;;;20.33;20.33;27.40;31.50;;;;;;5082018;28;11557;-66
2021/09/10 10:02:23;;;;;;;;;21.00;21.00;27.60;31.50;;;;;;5082421;28;11502;-65
2021/09/10 10:04:49;;;;;;;;;20.33;20.33;27.80;30.30;;;;;;5083850;28;8798;-65
2021/09/10 10:07:18;;;;;;;;;17.00;17.00;28.00;30.40;;;;;;5075461;28;11505;-66
2021/09/10 10:09:47;;;;;;;;;21.33;20.67;28.30;30.30;;;;;;5074803;28;8812;-66
2021/09/10 10:12:15;;;;;;;;;19.33;19.33;28.40;29.90;;;;;;5112964;28;11527;-65
2021/09/10 10:14:41;;;;;;;;;21.00;21.00;28.60;29.30;;;;;;5115975;28;11460;-65
2021/09/10 10:17:31;;;;;;;;;18.00;18.00;28.70;28.90;;;;;;5115754;28;11593;-66
2021/09/10 10:19:58;;;;;;;;;17.75;17.75;28.90;29.10;;;;;;5116087;28;12141;-66
2021/09/10 10:22:40;;;;;;;;;18.50;18.50;29.10;29.20;;;;;;5115991;28;11572;-64
2021/09/10 10:25:08;;;;;;;;;16.33;16.33;29.20;28.40;;;;;;5115923;28;11460;-64
2021/09/10 10:27:38;;;;;;;;;13.00;13.00;29.40;29.00;;;;;;5115864;28;11555;-64
2021/09/10 10:30:12;;;;;;;;;16.33;16.33;29.50;28.50;;;;;;5110678;28;11514;-65
2021/09/10 10:32:58;;;;;;;;;18.75;18.75;29.60;28.20;;;;;;5093092;28;11583;-65
2021/09/10 10:35:29;;;;;;;;;16.50;16.50;29.80;28.10;;;;;;5093379;28;11586;-64
2021/09/10 10:38:01;;;;;;;;;15.50;15.50;29.90;27.70;;;;;;5092288;28;11508;-64
2021/09/10 10:40:48;;;;;;;;;17.00;17.00;30.20;27.50;;;;;;5093525;28;11536;-65
2021/09/10 10:43:24;;;;;;;;;19.50;19.50;30.20;27.00;;;;;;5093422;28;11506;-65
2021/09/10 10:45:49;;;;;;;;;14.25;14.25;30.40;27.30;;;;;;5088987;28;11618;-66
2021/09/10 10:48:32;;;;;;;;;17.75;17.75;30.40;26.80;;;;;;5091181;28;11604;-65
2021/09/10 10:51:13;;;;;;;;;17.00;17.00;30.60;26.80;;;;;;5092850;28;8832;-63
2021/09/10 10:53:45;;;;;;;;;17.00;17.00;31.00;27.00;;;;;;5095092;28;11589;-64
2021/09/10 10:56:28;;;;;;;;;18.00;18.00;31.20;26.20;;;;;;5087600;28;11545;-64
2021/09/10 10:59:15;;;;;;;;;16.00;16.00;31.50;26.70;;;;;;5081635;28;11463;-64
2021/09/10 11:02:36;;;;;;;;;17.50;17.50;31.80;25.70;;;;;;5074440;28;11513;-63
2021/09/10 11:05:25;;;;;;;;;17.00;17.00;32.00;25.40;;;;;;5094313;28;12149;-64
2021/09/10 11:07:51;;;;;;;;;16.25;16.25;32.20;25.40;;;;;;5094602;28;11475;-65
2021/09/10 11:10:19;;;;;;;;;15.50;15.50;32.10;25.10;;;;;;5097880;28;11440;-64
2021/09/10 11:12:48;;;;;;;;;14.00;14.00;31.90;25.00;;;;;;5090653;28;8850;-64
2021/09/10 11:15:20;;;;;;;;;16.75;16.75;32.10;25.20;;;;;;5082512;28;11584;-63
2021/09/10 11:17:57;;;;;;;;;17.50;17.50;32.50;25.90;;;;;;5086072;28;12148;-64
2021/09/10 11:20:34;;;;;;;;;12.75;12.75;32.90;24.80;;;;;;5085732;28;11471;-63
2021/09/10 11:23:02;;;;;;;;;15.00;15.00;33.00;24.30;;;;;;5083213;28;11481;-65
2021/09/10 11:25:28;;;;;;;;;15.25;15.25;33.00;24.20;;;;;;5081245;28;11532;-65
2021/09/10 11:27:54;;;;;;;;;15.00;15.00;33.50;24.20;;;;;;5074726;28;12182;-63
2021/09/10 11:30:19;;;;;;;;;14.00;14.00;33.70;23.70;;;;;;5076632;28;11492;-63
2021/09/10 11:32:46;;;;;;;;;14.25;14.25;34.00;23.70;;;;;;5082778;28;9395;-64
2021/09/10 11:35:23;;;;;;;;;15.00;15.00;34.10;23.20;;;;;;5089750;28;8758;-65
2021/09/10 11:37:56;;;;;;;;;16.00;16.00;34.30;23.30;;;;;;5087393;28;11467;-64
2021/09/10 11:40:51;;;;;;;;;16.25;16.25;34.60;22.70;;;;;;5097580;28;11456;-65
2021/09/10 11:43:29;;;;;;;;;7.25;7.25;34.80;22.80;;;;;;5112087;28;11552;-65
2021/09/10 11:46:00;;;;;;;;;16.25;16.25;35.00;22.50;;;;;;5092111;28;12095;-64
2021/09/10 11:48:38;;;;;;;;;14.50;14.50;35.20;22.10;;;;;;5092464;28;11475;-64
2021/09/10 11:51:12;;;;;;;;;16.75;16.75;35.40;22.40;;;;;;5090471;28;11559;-64
2021/09/10 11:53:47;;;;;;;;;15.75;15.75;35.30;22.10;;;;;;5089607;28;11529;-65
2021/09/10 11:56:18;;;;;;;;;13.25;13.25;35.50;22.30;;;;;;5087472;28;11515;-64
2021/09/10 11:58:49;;;;;;;;;14.50;14.50;35.50;21.50;;;;;;5088677;28;11485;-65
2021/09/10 12:01:25;;;;;;;;;13.25;13.25;35.70;21.90;;;;;;5092233;28;11571;-65
2021/09/10 12:04:07;;;;;;;;;13.25;13.25;36.00;21.00;;;;;;5084683;28;11501;-64
2021/09/10 12:06:54;;;;;;;;;12.50;12.50;36.00;20.80;;;;;;5087555;28;11488;-64
2021/09/10 12:09:22;;;;;;;;;14.50;14.50;36.20;20.90;;;;;;5085438;28;11507;-64
2021/09/10 12:12:12;;;;;;;;;16.00;16.00;36.40;21.30;;;;;;5090184;28;11482;-64
2021/09/10 12:14:57;;;;;;;;;14.25;14.25;36.60;20.60;;;;;;5092517;28;11487;-63
2021/09/10 12:17:27;;;;;;;;;13.00;13.00;36.70;20.60;;;;;;5093771;28;11453;-63
2021/09/10 12:20:18;;;;;;;;;12.25;12.25;36.90;20.30;;;;;;5093944;28;11462;-66
2021/09/10 12:22:48;;;;;;;;;10.00;10.00;37.10;19.90;;;;;;5093881;28;11457;-66
2021/09/10 12:25:33;;;;;;;;;12.75;12.75;37.10;19.70;;;;;;5096887;28;11500;-65
2021/09/10 12:28:07;;;;;;;;;14.75;14.75;37.20;20.50;;;;;;5097222;28;11475;-65
2021/09/10 12:30:49;;;;;;;;;16.00;16.00;37.50;20.50;;;;;;5097316;28;11475;-66
2021/09/10 12:33:22;;;;;;;;;13.00;13.00;37.80;20.20;;;;;;5096514;28;12118;-65
2021/09/10 12:35:55;;;;;;;;;13.75;13.75;37.70;19.30;;;;;;5097316;28;11488;-65
2021/09/10 12:38:23;;;;;;;;;13.75;13.75;37.80;19.70;;;;;;5097662;28;11451;-67
2021/09/10 12:40:52;;;;;;;;;20.00;20.00;38.10;20.40;;;;;;5104855;28;11427;-67
2021/09/10 12:43:22;;;;;;;;;18.50;18.50;38.20;20.30;;;;;;5117642;28;11481;-65